sensor_id;sensor_type;location;lat;lon;timestamp;pressure;altitude;pressure_sealevel;temperature;humidity
67818;BME280;54614;47.576;7.524;2023-09-30T00:00:59;99379.78;;;26.95;47.40
67818;BME280;54614;47.576;7.524;2023-09-30T00:03:25;99385.38;;;26.94;47.52
67818;BME280;54614;47.576;7.524;2023-09-30T00:05:51;99376.44;;;26.93;47.65
67818;BME280;54614;47.576;7.524;2023-09-30T00:08:16;99379.16;;;26.93;47.52
67818;BME280;54614;47.576;7.524;2023-09-30T00:10:42;99386.22;;;26.94;47.43
67818;BME280;54614;47.576;7.524;2023-09-30T00:13:08;99383.72;;;26.93;47.44
67818;BME280;54614;47.576;7.524;2023-09-30T00:15:34;99380.41;;;26.91;47.53
67818;BME280;54614;47.576;7.524;2023-09-30T00:18:00;99378.13;;;26.94;47.51
67818;BME280;54614;47.576;7.524;2023-09-30T00:20:28;99386.22;;;26.94;47.10
67818;BME280;54614;47.576;7.524;2023-09-30T00:22:54;99381.84;;;26.93;47.49
67818;BME280;54614;47.576;7.524;2023-09-30T00:25:19;99383.50;;;26.94;47.29
67818;BME280;54614;47.576;7.524;2023-09-30T00:27:49;99375.84;;;26.91;47.42
67818;BME280;54614;47.576;7.524;2023-09-30T00:30:15;99373.75;;;26.93;47.26
67818;BME280;54614;47.576;7.524;2023-09-30T00:32:41;99377.06;;;26.95;47.31
67818;BME280;54614;47.576;7.524;2023-09-30T00:35:07;99378.13;;;26.94;47.29
67818;BME280;54614;47.576;7.524;2023-09-30T00:37:40;99384.56;;;26.93;47.37
67818;BME280;54614;47.576;7.524;2023-09-30T00:40:10;99378.53;;;26.91;47.38
67818;BME280;54614;47.576;7.524;2023-09-30T00:42:41;99383.72;;;26.93;47.29
67818;BME280;54614;47.576;7.524;2023-09-30T00:45:08;99386.41;;;26.93;47.33
67818;BME280;54614;47.576;7.524;2023-09-30T00:47:38;99383.31;;;26.89;47.26
67818;BME280;54614;47.576;7.524;2023-09-30T00:50:07;99392.44;;;26.88;47.37
67818;BME280;54614;47.576;7.524;2023-09-30T00:52:38;99386.63;;;26.91;47.29
67818;BME280;54614;47.576;7.524;2023-09-30T00:55:05;99386.41;;;26.93;47.34
67818;BME280;54614;47.576;7.524;2023-09-30T00:57:31;99378.53;;;26.91;47.40
67818;BME280;54614;47.576;7.524;2023-09-30T00:59:58;99383.94;;;26.91;47.36
67818;BME280;54614;47.576;7.524;2023-09-30T01:02:25;99385.59;;;26.92;47.29
67818;BME280;54614;47.576;7.524;2023-09-30T01:04:53;99377.69;;;26.91;47.29
67818;BME280;54614;47.576;7.524;2023-09-30T01:07:20;99373.53;;;26.88;47.42
67818;BME280;54614;47.576;7.524;2023-09-30T01:09:49;99373.97;;;26.92;47.29
67818;BME280;54614;47.576;7.524;2023-09-30T01:12:16;99374.78;;;26.92;47.53
67818;BME280;54614;47.576;7.524;2023-09-30T01:14:42;99379.78;;;26.89;47.23
67818;BME280;54614;47.576;7.524;2023-09-30T01:17:08;99382.06;;;26.92;47.25
67818;BME280;54614;47.576;7.524;2023-09-30T01:19:35;99375.00;;;26.91;47.09
67818;BME280;54614;47.576;7.524;2023-09-30T01:22:00;99366.06;;;26.90;47.11
67818;BME280;54614;47.576;7.524;2023-09-30T01:24:38;99368.34;;;26.87;47.32
67818;BME280;54614;47.576;7.524;2023-09-30T01:27:04;99366.06;;;26.90;47.08
67818;BME280;54614;47.576;7.524;2023-09-30T01:29:30;99365.44;;;26.88;47.20
67818;BME280;54614;47.576;7.524;2023-09-30T01:31:56;99356.31;;;26.89;47.26
67818;BME280;54614;47.576;7.524;2023-09-30T01:34:21;99354.66;;;26.88;47.22
67818;BME280;54614;47.576;7.524;2023-09-30T01:36:48;99346.75;;;26.87;47.23
67818;BME280;54614;47.576;7.524;2023-09-30T01:39:14;99358.19;;;26.89;46.99
67818;BME280;54614;47.576;7.524;2023-09-30T01:41:41;99354.03;;;26.86;47.35
67818;BME280;54614;47.576;7.524;2023-09-30T01:44:07;99351.13;;;26.88;47.23
67818;BME280;54614;47.576;7.524;2023-09-30T01:46:35;99357.56;;;26.87;47.01
67818;BME280;54614;47.576;7.524;2023-09-30T01:49:02;99359.63;;;26.85;47.26
67818;BME280;54614;47.576;7.524;2023-09-30T01:51:29;99364.81;;;26.86;47.13
67818;BME280;54614;47.576;7.524;2023-09-30T01:53:55;99362.94;;;26.87;47.26
67818;BME280;54614;47.576;7.524;2023-09-30T01:56:21;99363.16;;;26.85;47.13
67818;BME280;54614;47.576;7.524;2023-09-30T01:58:47;99371.06;;;26.87;47.23
67818;BME280;54614;47.576;7.524;2023-09-30T02:01:13;99364.63;;;26.88;47.26
67818;BME280;54614;47.576;7.524;2023-09-30T02:03:39;99367.94;;;26.83;47.14
67818;BME280;54614;47.576;7.524;2023-09-30T02:06:05;99368.56;;;26.85;47.20
67818;BME280;54614;47.576;7.524;2023-09-30T02:08:30;99366.69;;;26.86;47.17
67818;BME280;54614;47.576;7.524;2023-09-30T02:10:57;99365.84;;;26.85;47.24
67818;BME280;54614;47.576;7.524;2023-09-30T02:13:22;99362.53;;;26.83;47.07
67818;BME280;54614;47.576;7.524;2023-09-30T02:15:48;99362.13;;;26.86;47.06
67818;BME280;54614;47.576;7.524;2023-09-30T02:18:14;99357.75;;;26.85;47.13
67818;BME280;54614;47.576;7.524;2023-09-30T02:20:40;99356.94;;;26.85;47.12
67818;BME280;54614;47.576;7.524;2023-09-30T02:23:10;99354.22;;;26.85;47.05
67818;BME280;54614;47.576;7.524;2023-09-30T02:25:37;99356.94;;;26.85;47.17
67818;BME280;54614;47.576;7.524;2023-09-30T02:28:05;99356.09;;;26.84;47.07
67818;BME280;54614;47.576;7.524;2023-09-30T02:30:30;99358.59;;;26.86;47.13
67818;BME280;54614;47.576;7.524;2023-09-30T02:32:57;99354.44;;;26.83;47.18
67818;BME280;54614;47.576;7.524;2023-09-30T02:35:23;99354.22;;;26.85;47.13
67818;BME280;54614;47.576;7.524;2023-09-30T02:37:49;99357.13;;;26.83;47.04
67818;BME280;54614;47.576;7.524;2023-09-30T02:40:15;99341.56;;;26.85;47.19
67818;BME280;54614;47.576;7.524;2023-09-30T02:42:43;99349.03;;;26.83;47.19
67818;BME280;54614;47.576;7.524;2023-09-30T02:45:11;99346.34;;;26.83;47.05
67818;BME280;54614;47.576;7.524;2023-09-30T02:47:38;99352.56;;;26.84;47.10
67818;BME280;54614;47.576;7.524;2023-09-30T02:50:09;99361.50;;;26.84;47.18
67818;BME280;54614;47.576;7.524;2023-09-30T02:52:37;99357.97;;;26.84;47.23
67818;BME280;54614;47.576;7.524;2023-09-30T02:55:10;99364.19;;;26.84;47.05
67818;BME280;54614;47.576;7.524;2023-09-30T02:57:37;99368.97;;;26.82;47.04
67818;BME280;54614;47.576;7.524;2023-09-30T03:00:08;99359.44;;;26.80;47.25
67818;BME280;54614;47.576;7.524;2023-09-30T03:02:53;99361.72;;;26.83;47.27
67818;BME280;54614;47.576;7.524;2023-09-30T03:05:19;99365.44;;;26.82;47.11
67818;BME280;54614;47.576;7.524;2023-09-30T03:07:48;99367.72;;;26.85;46.98
67818;BME280;54614;47.576;7.524;2023-09-30T03:10:16;99364.41;;;26.83;47.09
67818;BME280;54614;47.576;7.524;2023-09-30T03:13:08;99370.84;;;26.82;47.03
67818;BME280;54614;47.576;7.524;2023-09-30T03:15:35;99368.97;;;26.82;47.10
67818;BME280;54614;47.576;7.524;2023-09-30T03:18:01;99373.53;;;26.82;46.99
67818;BME280;54614;47.576;7.524;2023-09-30T03:20:29;99371.88;;;26.81;47.09
67818;BME280;54614;47.576;7.524;2023-09-30T03:22:56;99368.97;;;26.82;46.95
67818;BME280;54614;47.576;7.524;2023-09-30T03:25:22;99373.75;;;26.80;47.09
67818;BME280;54614;47.576;7.524;2023-09-30T03:27:49;99374.78;;;26.79;47.01
67818;BME280;54614;47.576;7.524;2023-09-30T03:30:17;99367.72;;;26.78;47.04
67818;BME280;54614;47.576;7.524;2023-09-30T03:32:43;99370.00;;;26.81;46.96
67818;BME280;54614;47.576;7.524;2023-09-30T03:35:10;99373.75;;;26.80;47.05
67818;BME280;54614;47.576;7.524;2023-09-30T03:37:37;99371.69;;;26.82;47.00
67818;BME280;54614;47.576;7.524;2023-09-30T03:40:04;99366.47;;;26.81;47.03
67818;BME280;54614;47.576;7.524;2023-09-30T03:42:39;99364.81;;;26.80;47.15
67818;BME280;54614;47.576;7.524;2023-09-30T03:45:06;99353.81;;;26.81;47.04
67818;BME280;54614;47.576;7.524;2023-09-30T03:47:39;99326.19;;;26.79;47.02
67818;BME280;54614;47.576;7.524;2023-09-30T03:50:06;99314.56;;;26.79;47.11
67818;BME280;54614;47.576;7.524;2023-09-30T03:52:41;99313.75;;;26.78;47.26
67818;BME280;54614;47.576;7.524;2023-09-30T03:55:13;99296.72;;;26.78;47.05
67818;BME280;54614;47.576;7.524;2023-09-30T03:57:41;99301.06;;;26.79;47.07
67818;BME280;54614;47.576;7.524;2023-09-30T04:00:08;99316.44;;;26.78;47.08
67818;BME280;54614;47.576;7.524;2023-09-30T04:02:37;99326.19;;;26.79;47.01
67818;BME280;54614;47.576;7.524;2023-09-30T04:05:03;99328.28;;;26.77;47.13
67818;BME280;54614;47.576;7.524;2023-09-30T04:07:31;99335.34;;;26.78;46.93
67818;BME280;54614;47.576;7.524;2023-09-30T04:09:58;99342.81;;;26.76;47.11
67818;BME280;54614;47.576;7.524;2023-09-30T04:12:26;99347.59;;;26.74;47.16
67818;BME280;54614;47.576;7.524;2023-09-30T04:14:52;99340.13;;;26.76;47.07
67818;BME280;54614;47.576;7.524;2023-09-30T04:17:18;99331.19;;;26.76;47.00
67818;BME280;54614;47.576;7.524;2023-09-30T04:19:44;99332.63;;;26.78;47.10
67818;BME280;54614;47.576;7.524;2023-09-30T04:22:12;99320.81;;;26.79;46.96
67818;BME280;54614;47.576;7.524;2023-09-30T04:24:38;99335.34;;;26.78;46.97
67818;BME280;54614;47.576;7.524;2023-09-30T04:27:05;99348.63;;;26.80;47.03
67818;BME280;54614;47.576;7.524;2023-09-30T04:29:33;99363.56;;;26.76;47.09
67818;BME280;54614;47.576;7.524;2023-09-30T04:32:00;99366.06;;;26.77;47.04
67818;BME280;54614;47.576;7.524;2023-09-30T04:34:25;99357.75;;;26.79;46.97
67818;BME280;54614;47.576;7.524;2023-09-30T04:36:53;99375.19;;;26.76;47.12
67818;BME280;54614;47.576;7.524;2023-09-30T04:39:19;99370.84;;;26.75;47.17
67818;BME280;54614;47.576;7.524;2023-09-30T04:41:45;99371.06;;;26.74;47.06
67818;BME280;54614;47.576;7.524;2023-09-30T04:44:12;99379.78;;;26.76;46.80
67818;BME280;54614;47.576;7.524;2023-09-30T04:46:38;99382.69;;;26.74;47.06
67818;BME280;54614;47.576;7.524;2023-09-30T04:49:15;99375.19;;;26.76;46.89
67818;BME280;54614;47.576;7.524;2023-09-30T04:51:41;99372.28;;;26.78;47.00
67818;BME280;54614;47.576;7.524;2023-09-30T04:54:07;99374.38;;;26.76;46.92
67818;BME280;54614;47.576;7.524;2023-09-30T04:56:35;99366.69;;;26.73;47.04
67818;BME280;54614;47.576;7.524;2023-09-30T04:59:01;99370.84;;;26.75;46.94
67818;BME280;54614;47.576;7.524;2023-09-30T05:01:28;99371.47;;;26.77;46.98
67818;BME280;54614;47.576;7.524;2023-09-30T05:03:53;99381.22;;;26.78;46.81
67818;BME280;54614;47.576;7.524;2023-09-30T05:06:19;99392.03;;;26.78;46.83
67818;BME280;54614;47.576;7.524;2023-09-30T05:08:47;99403.66;;;26.72;47.07
67818;BME280;54614;47.576;7.524;2023-09-30T05:11:14;99392.44;;;26.75;47.05
67818;BME280;54614;47.576;7.524;2023-09-30T05:13:39;99393.47;;;26.74;47.10
67818;BME280;54614;47.576;7.524;2023-09-30T05:16:05;99394.72;;;26.72;47.32
67818;BME280;54614;47.576;7.524;2023-09-30T05:18:34;99400.94;;;26.72;47.49
67818;BME280;54614;47.576;7.524;2023-09-30T05:21:00;99393.88;;;26.71;47.38
67818;BME280;54614;47.576;7.524;2023-09-30T05:23:26;99395.13;;;26.75;47.43
67818;BME280;54614;47.576;7.524;2023-09-30T05:25:52;99408.63;;;26.75;47.46
67818;BME280;54614;47.576;7.524;2023-09-30T05:28:20;99409.88;;;26.73;47.58
67818;BME280;54614;47.576;7.524;2023-09-30T05:30:46;99395.53;;;26.72;47.69
67818;BME280;54614;47.576;7.524;2023-09-30T05:33:12;99413.19;;;26.75;47.59
67818;BME280;54614;47.576;7.524;2023-09-30T05:35:41;99409.66;;;26.74;47.76
67818;BME280;54614;47.576;7.524;2023-09-30T05:38:08;99400.53;;;26.75;47.71
67818;BME280;54614;47.576;7.524;2023-09-30T05:40:34;99386.81;;;26.70;47.81
67818;BME280;54614;47.576;7.524;2023-09-30T05:43:00;99392.84;;;26.72;47.60
67818;BME280;54614;47.576;7.524;2023-09-30T05:45:32;99391.81;;;26.73;47.71
67818;BME280;54614;47.576;7.524;2023-09-30T05:48:04;99406.97;;;26.74;47.55
67818;BME280;54614;47.576;7.524;2023-09-30T05:50:35;99402.59;;;26.73;47.78
67818;BME280;54614;47.576;7.524;2023-09-30T05:53:02;99395.34;;;26.74;47.81
67818;BME280;54614;47.576;7.524;2023-09-30T05:55:30;99400.75;;;26.74;47.54
67818;BME280;54614;47.576;7.524;2023-09-30T05:57:55;99410.50;;;26.75;47.58
67818;BME280;54614;47.576;7.524;2023-09-30T06:00:22;99415.47;;;26.71;47.55
67818;BME280;54614;47.576;7.524;2023-09-30T06:02:53;99418.38;;;26.70;47.62
67818;BME280;54614;47.576;7.524;2023-09-30T06:05:19;99425.03;;;26.67;47.61
67818;BME280;54614;47.576;7.524;2023-09-30T06:07:49;99430.41;;;26.67;47.77
67818;BME280;54614;47.576;7.524;2023-09-30T06:10:15;99448.88;;;26.63;48.18
67818;BME280;54614;47.576;7.524;2023-09-30T06:12:45;99452.84;;;26.68;47.84
67818;BME280;54614;47.576;7.524;2023-09-30T06:15:13;99450.13;;;26.68;47.79
67818;BME280;54614;47.576;7.524;2023-09-30T06:17:40;99449.91;;;26.62;47.98
67818;BME280;54614;47.576;7.524;2023-09-30T06:20:06;99444.13;;;26.65;47.77
67818;BME280;54614;47.576;7.524;2023-09-30T06:22:42;99442.44;;;26.58;47.94
67818;BME280;54614;47.576;7.524;2023-09-30T06:25:12;99453.25;;;26.64;47.94
67818;BME280;54614;47.576;7.524;2023-09-30T06:27:38;99453.25;;;26.64;47.86
67818;BME280;54614;47.576;7.524;2023-09-30T06:30:05;99451.16;;;26.60;48.07
67818;BME280;54614;47.576;7.524;2023-09-30T06:32:31;99450.09;;;26.48;48.20
67818;BME280;54614;47.576;7.524;2023-09-30T06:34:57;99455.75;;;26.12;47.60
67818;BME280;54614;47.576;7.524;2023-09-30T06:37:23;99465.75;;;25.90;47.36
67818;BME280;54614;47.576;7.524;2023-09-30T06:39:49;99470.84;;;25.72;47.60
67818;BME280;54614;47.576;7.524;2023-09-30T06:42:15;99467.41;;;25.56;47.50
67818;BME280;54614;47.576;7.524;2023-09-30T06:44:41;99458.81;;;25.46;47.44
67818;BME280;54614;47.576;7.524;2023-09-30T06:47:06;99458.91;;;25.31;47.44
67818;BME280;54614;47.576;7.524;2023-09-30T06:49:35;99454.47;;;25.17;48.06
67818;BME280;54614;47.576;7.524;2023-09-30T06:52:00;99460.72;;;25.24;47.57
67818;BME280;54614;47.576;7.524;2023-09-30T06:54:28;99460.34;;;25.27;47.08
67818;BME280;54614;47.576;7.524;2023-09-30T06:56:56;99468.63;;;25.26;47.01
67818;BME280;54614;47.576;7.524;2023-09-30T06:59:22;99479.63;;;25.31;46.96
67818;BME280;54614;47.576;7.524;2023-09-30T07:01:47;99465.88;;;25.19;47.21
67818;BME280;54614;47.576;7.524;2023-09-30T07:04:13;99464.59;;;25.15;47.23
67818;BME280;54614;47.576;7.524;2023-09-30T07:06:39;99462.22;;;25.05;47.02
67818;BME280;54614;47.576;7.524;2023-09-30T07:09:04;99459.59;;;25.12;47.41
67818;BME280;54614;47.576;7.524;2023-09-30T07:11:31;99465.56;;;25.08;47.31
67818;BME280;54614;47.576;7.524;2023-09-30T07:14:01;99470.81;;;25.16;47.44
67818;BME280;54614;47.576;7.524;2023-09-30T07:16:26;99482.91;;;25.26;47.32
67818;BME280;54614;47.576;7.524;2023-09-30T07:18:52;99486.50;;;25.33;47.38
67818;BME280;54614;47.576;7.524;2023-09-30T07:21:18;99491.59;;;25.50;47.37
67818;BME280;54614;47.576;7.524;2023-09-30T07:23:43;99481.88;;;25.55;47.48
67818;BME280;54614;47.576;7.524;2023-09-30T07:26:09;99492.06;;;25.60;47.24
67818;BME280;54614;47.576;7.524;2023-09-30T07:28:35;99485.28;;;25.64;47.14
67818;BME280;54614;47.576;7.524;2023-09-30T07:31:01;99480.16;;;25.69;47.03
67818;BME280;54614;47.576;7.524;2023-09-30T07:33:27;99474.56;;;25.70;47.15
67818;BME280;54614;47.576;7.524;2023-09-30T07:35:52;99483.28;;;25.73;47.22
67818;BME280;54614;47.576;7.524;2023-09-30T07:38:21;99483.31;;;25.79;47.33
67818;BME280;54614;47.576;7.524;2023-09-30T07:40:47;99479.78;;;25.79;47.21
67818;BME280;54614;47.576;7.524;2023-09-30T07:43:15;99473.38;;;25.80;47.30
67818;BME280;54614;47.576;7.524;2023-09-30T07:45:40;99470.84;;;25.72;47.68
67818;BME280;54614;47.576;7.524;2023-09-30T07:48:09;99475.47;;;25.84;49.51
67818;BME280;54614;47.576;7.524;2023-09-30T07:50:36;99471.56;;;25.87;49.51
67818;BME280;54614;47.576;7.524;2023-09-30T07:53:03;99476.16;;;25.93;49.32
67818;BME280;54614;47.576;7.524;2023-09-30T07:55:29;99483.59;;;25.91;49.06
67818;BME280;54614;47.576;7.524;2023-09-30T07:57:57;99489.22;;;25.96;48.24
67818;BME280;54614;47.576;7.524;2023-09-30T08:00:24;99503.09;;;25.93;48.49
67818;BME280;54614;47.576;7.524;2023-09-30T08:02:50;99508.53;;;25.99;48.18
67818;BME280;54614;47.576;7.524;2023-09-30T08:05:16;99499.47;;;26.07;48.83
67818;BME280;54614;47.576;7.524;2023-09-30T08:07:42;99490.13;;;26.03;48.69
67818;BME280;54614;47.576;7.524;2023-09-30T08:10:09;99497.59;;;26.01;48.43
67818;BME280;54614;47.576;7.524;2023-09-30T08:12:40;99492.19;;;26.01;48.46
67818;BME280;54614;47.576;7.524;2023-09-30T08:15:07;99507.69;;;25.99;48.57
67818;BME280;54614;47.576;7.524;2023-09-30T08:17:32;99498.78;;;25.98;48.66
67818;BME280;54614;47.576;7.524;2023-09-30T08:19:59;99499.81;;;25.97;48.50
67818;BME280;54614;47.576;7.524;2023-09-30T08:22:25;99479.72;;;26.00;48.20
67818;BME280;54614;47.576;7.524;2023-09-30T08:24:54;99484.09;;;26.01;48.05
67818;BME280;54614;47.576;7.524;2023-09-30T08:27:20;99485.09;;;26.00;48.06
67818;BME280;54614;47.576;7.524;2023-09-30T08:29:46;99489.09;;;26.04;48.15
67818;BME280;54614;47.576;7.524;2023-09-30T08:32:12;99491.16;;;26.02;47.94
67818;BME280;54614;47.576;7.524;2023-09-30T08:34:37;99493.16;;;25.93;50.58
67818;BME280;54614;47.576;7.524;2023-09-30T08:37:03;99480.50;;;25.94;50.18
67818;BME280;54614;47.576;7.524;2023-09-30T08:39:29;99471.47;;;26.01;49.85
67818;BME280;54614;47.576;7.524;2023-09-30T08:41:55;99474.78;;;26.04;49.93
67818;BME280;54614;47.576;7.524;2023-09-30T08:44:22;99482.28;;;26.08;49.81
67818;BME280;54614;47.576;7.524;2023-09-30T08:46:50;99491.00;;;26.10;50.07
67818;BME280;54614;47.576;7.524;2023-09-30T08:49:19;99503.66;;;26.10;50.38
67818;BME280;54614;47.576;7.524;2023-09-30T08:51:48;99509.06;;;26.16;50.82
67818;BME280;54614;47.576;7.524;2023-09-30T08:54:15;99512.63;;;26.23;50.33
67818;BME280;54614;47.576;7.524;2023-09-30T08:56:44;99514.72;;;26.28;49.87
67818;BME280;54614;47.576;7.524;2023-09-30T08:59:14;99517.22;;;26.29;49.88
67818;BME280;54614;47.576;7.524;2023-09-30T09:01:40;99515.75;;;26.27;50.28
67818;BME280;54614;47.576;7.524;2023-09-30T09:04:07;99522.69;;;26.36;49.88
67818;BME280;54614;47.576;7.524;2023-09-30T09:06:33;99517.13;;;26.44;49.39
67818;BME280;54614;47.576;7.524;2023-09-30T09:09:18;99516.91;;;26.46;49.14
67818;BME280;54614;47.576;7.524;2023-09-30T09:11:45;99512.97;;;26.48;48.93
67818;BME280;54614;47.576;7.524;2023-09-30T09:14:12;99515.00;;;26.33;49.00
67818;BME280;54614;47.576;7.524;2023-09-30T09:16:56;99510.72;;;26.17;48.31
67818;BME280;54614;47.576;7.524;2023-09-30T09:19:22;99515.09;;;26.18;47.34
67818;BME280;54614;47.576;7.524;2023-09-30T09:21:57;99508.84;;;26.11;47.31
67818;BME280;54614;47.576;7.524;2023-09-30T09:24:43;99506.78;;;26.13;46.71
67818;BME280;54614;47.576;7.524;2023-09-30T09:27:13;99497.47;;;26.22;47.20
67818;BME280;54614;47.576;7.524;2023-09-30T09:29:43;99472.00;;;26.31;47.80
67818;BME280;54614;47.576;7.524;2023-09-30T09:32:17;99471.91;;;26.53;47.41
67818;BME280;54614;47.576;7.524;2023-09-30T09:34:45;99465.69;;;26.59;47.45
67818;BME280;54614;47.576;7.524;2023-09-30T09:37:25;99455.75;;;26.66;47.40
67818;BME280;54614;47.576;7.524;2023-09-30T09:39:51;99455.13;;;26.71;47.63
67818;BME280;54614;47.576;7.524;2023-09-30T09:42:32;99465.50;;;26.67;47.47
67818;BME280;54614;47.576;7.524;2023-09-30T09:45:02;99449.09;;;26.62;47.38
67818;BME280;54614;47.576;7.524;2023-09-30T09:47:31;99446.41;;;26.62;47.21
67818;BME280;54614;47.576;7.524;2023-09-30T09:49:59;99428.94;;;26.58;47.10
67818;BME280;54614;47.576;7.524;2023-09-30T09:52:27;99439.94;;;26.56;47.05
67818;BME280;54614;47.576;7.524;2023-09-30T09:54:54;99452.00;;;26.60;46.78
67818;BME280;54614;47.576;7.524;2023-09-30T09:57:20;99450.75;;;26.56;46.39
67818;BME280;54614;47.576;7.524;2023-09-30T09:59:47;99443.66;;;26.49;46.23
67818;BME280;54614;47.576;7.524;2023-09-30T10:02:15;99437.88;;;26.58;46.20
67818;BME280;54614;47.576;7.524;2023-09-30T10:04:46;99421.50;;;26.67;46.28
67818;BME280;54614;47.576;7.524;2023-09-30T10:07:22;99414.84;;;26.76;46.03
67818;BME280;54614;47.576;7.524;2023-09-30T10:09:52;99420.88;;;26.71;46.62
67818;BME280;54614;47.576;7.524;2023-09-30T10:12:19;99432.09;;;26.68;46.58
67818;BME280;54614;47.576;7.524;2023-09-30T10:14:47;99426.28;;;26.71;46.92
67818;BME280;54614;47.576;7.524;2023-09-30T10:17:13;99424.63;;;26.77;46.80
67818;BME280;54614;47.576;7.524;2023-09-30T10:20:05;99427.31;;;26.77;46.50
67818;BME280;54614;47.576;7.524;2023-09-30T10:22:35;99424.84;;;26.88;46.20
67818;BME280;54614;47.576;7.524;2023-09-30T10:25:33;99428.56;;;26.87;46.23
67818;BME280;54614;47.576;7.524;2023-09-30T10:28:00;99425.25;;;26.79;46.43
67818;BME280;54614;47.576;7.524;2023-09-30T10:30:26;99417.97;;;26.73;45.62
67818;BME280;54614;47.576;7.524;2023-09-30T10:40:47;99429.38;;;26.75;45.22
67818;BME280;54614;47.576;7.524;2023-09-30T10:43:36;99420.88;;;26.71;45.35
67818;BME280;54614;47.576;7.524;2023-09-30T10:46:29;99414.44;;;26.72;46.04
67818;BME280;54614;47.576;7.524;2023-09-30T10:48:51;99407.59;;;26.76;46.62
67818;BME280;54614;47.576;7.524;2023-09-30T10:51:19;99407.38;;;26.71;46.57
67818;BME280;54614;47.576;7.524;2023-09-30T10:53:55;99406.75;;;26.69;45.83
67818;BME280;54614;47.576;7.524;2023-09-30T10:56:33;99407.16;;;26.66;44.86
67818;BME280;54614;47.576;7.524;2023-09-30T10:58:59;99408.84;;;26.74;44.99
67818;BME280;54614;47.576;7.524;2023-09-30T11:01:33;99406.13;;;26.74;45.48
67818;BME280;54614;47.576;7.524;2023-09-30T11:04:03;99404.88;;;26.70;45.61
67818;BME280;54614;47.576;7.524;2023-09-30T11:06:31;99401.34;;;26.69;45.74
67818;BME280;54614;47.576;7.524;2023-09-30T11:08:59;99405.50;;;26.65;45.55
67818;BME280;54614;47.576;7.524;2023-09-30T11:11:52;99400.31;;;26.63;45.19
67818;BME280;54614;47.576;7.524;2023-09-30T11:14:28;99398.84;;;26.61;44.92
67818;BME280;54614;47.576;7.524;2023-09-30T11:17:00;99398.84;;;26.61;44.67
67818;BME280;54614;47.576;7.524;2023-09-30T11:19:47;99409.25;;;26.64;44.38
67818;BME280;54614;47.576;7.524;2023-09-30T11:22:16;99404.25;;;26.68;44.29
67818;BME280;54614;47.576;7.524;2023-09-30T11:24:42;99402.59;;;26.60;44.67
67818;BME280;54614;47.576;7.524;2023-09-30T11:27:08;99407.38;;;26.78;44.66
67818;BME280;54614;47.576;7.524;2023-09-30T11:29:35;99403.03;;;26.83;44.42
67818;BME280;54614;47.576;7.524;2023-09-30T11:32:01;99407.59;;;26.83;44.65
67818;BME280;54614;47.576;7.524;2023-09-30T11:34:36;99408.44;;;26.83;44.95
67818;BME280;54614;47.576;7.524;2023-09-30T11:37:03;99406.34;;;26.85;45.10
67818;BME280;54614;47.576;7.524;2023-09-30T11:39:30;99396.38;;;26.86;45.21
67818;BME280;54614;47.576;7.524;2023-09-30T11:41:57;99390.16;;;26.85;45.37
67818;BME280;54614;47.576;7.524;2023-09-30T11:44:24;99382.88;;;26.79;45.40
67818;BME280;54614;47.576;7.524;2023-09-30T11:46:59;99385.78;;;26.71;45.93
67818;BME280;54614;47.576;7.524;2023-09-30T11:49:31;99383.91;;;26.72;46.01
67818;BME280;54614;47.576;7.524;2023-09-30T11:52:00;99375.41;;;26.75;45.93
67818;BME280;54614;47.576;7.524;2023-09-30T11:54:41;99377.91;;;26.76;46.16
67818;BME280;54614;47.576;7.524;2023-09-30T11:57:19;99375.81;;;26.78;46.13
67818;BME280;54614;47.576;7.524;2023-09-30T11:59:46;99373.13;;;26.78;46.12
67818;BME280;54614;47.576;7.524;2023-09-30T12:02:16;99374.38;;;26.82;46.07
67818;BME280;54614;47.576;7.524;2023-09-30T12:04:44;99383.50;;;26.81;46.17
67818;BME280;54614;47.576;7.524;2023-09-30T12:07:11;99378.75;;;26.83;46.19
67818;BME280;54614;47.576;7.524;2023-09-30T12:09:37;99374.78;;;26.79;46.25
67818;BME280;54614;47.576;7.524;2023-09-30T12:12:05;99372.72;;;26.81;46.06
67818;BME280;54614;47.576;7.524;2023-09-30T12:14:35;99362.94;;;26.74;45.95
67818;BME280;54614;47.576;7.524;2023-09-30T12:17:01;99361.09;;;26.81;45.94
67818;BME280;54614;47.576;7.524;2023-09-30T12:19:26;99363.78;;;26.81;45.81
67818;BME280;54614;47.576;7.524;2023-09-30T12:21:55;99350.28;;;26.81;46.05
67818;BME280;54614;47.576;7.524;2023-09-30T12:24:21;99355.91;;;26.79;46.18
67818;BME280;54614;47.576;7.524;2023-09-30T12:26:50;99354.03;;;26.86;46.03
67818;BME280;54614;47.576;7.524;2023-09-30T12:29:22;99352.16;;;26.93;45.84
67818;BME280;54614;47.576;7.524;2023-09-30T12:31:51;99352.16;;;26.93;46.00
67818;BME280;54614;47.576;7.524;2023-09-30T12:34:18;99348.22;;;26.96;46.00
67818;BME280;54614;47.576;7.524;2023-09-30T12:36:44;99345.72;;;26.94;46.05
67818;BME280;54614;47.576;7.524;2023-09-30T12:39:11;99359.00;;;26.96;46.04
67818;BME280;54614;47.576;7.524;2023-09-30T12:41:44;99353.00;;;27.01;46.13
67818;BME280;54614;47.576;7.524;2023-09-30T12:44:11;99347.59;;;27.01;46.02
67818;BME280;54614;47.576;7.524;2023-09-30T12:46:37;99335.16;;;27.00;46.15
67818;BME280;54614;47.576;7.524;2023-09-30T12:49:08;99342.63;;;26.98;45.97
67818;BME280;54614;47.576;7.524;2023-09-30T12:51:35;99334.53;;;26.98;46.12
67818;BME280;54614;47.576;7.524;2023-09-30T12:54:04;99335.34;;;26.98;46.21
67818;BME280;54614;47.576;7.524;2023-09-30T12:56:30;99331.63;;;26.99;46.26
67818;BME280;54614;47.576;7.524;2023-09-30T12:58:58;99325.38;;;26.99;46.27
67818;BME280;54614;47.576;7.524;2023-09-30T13:01:25;99328.69;;;26.94;46.43
67818;BME280;54614;47.576;7.524;2023-09-30T13:03:50;99336.38;;;26.84;46.89
67818;BME280;54614;47.576;7.524;2023-09-30T13:06:18;99329.94;;;26.78;46.34
67818;BME280;54614;47.576;7.524;2023-09-30T13:08:45;99326.41;;;26.71;45.26
67818;BME280;54614;47.576;7.524;2023-09-30T13:11:11;99327.03;;;26.67;44.67
67818;BME280;54614;47.576;7.524;2023-09-30T13:13:38;99333.25;;;26.67;44.44